sensor_id;sensor_type;location;lat;lon;timestamp;pressure;altitude;pressure_sealevel;temperature;humidity
60417;BME280;46263;44.726;10.396;2022-09-12T00:00:44;100531.28;;;23.74;58.24
60417;BME280;46263;44.726;10.396;2022-09-12T00:03:09;100537.56;;;23.72;58.17
60417;BME280;46263;44.726;10.396;2022-09-12T00:05:43;100540.13;;;23.68;58.21
60417;BME280;46263;44.726;10.396;2022-09-12T00:08:09;100532.19;;;23.67;58.34
60417;BME280;46263;44.726;10.396;2022-09-12T00:10:39;100532.03;;;23.74;58.28
60417;BME280;46263;44.726;10.396;2022-09-12T00:13:06;100532.09;;;23.86;58.16
60417;BME280;46263;44.726;10.396;2022-09-12T00:15:37;100529.66;;;23.92;57.98
60417;BME280;46263;44.726;10.396;2022-09-12T00:18:02;100533.38;;;23.94;58.07
60417;BME280;46263;44.726;10.396;2022-09-12T00:20:28;100526.44;;;23.97;58.18
60417;BME280;46263;44.726;10.396;2022-09-12T00:22:53;100526.56;;;23.99;58.11
60417;BME280;46263;44.726;10.396;2022-09-12T00:25:19;100528.06;;;24.00;57.91
60417;BME280;46263;44.726;10.396;2022-09-12T00:27:44;100528.19;;;24.02;57.95
60417;BME280;46263;44.726;10.396;2022-09-12T00:30:10;100529.69;;;24.03;57.91
60417;BME280;46263;44.726;10.396;2022-09-12T00:32:35;100533.28;;;24.04;57.69
60417;BME280;46263;44.726;10.396;2022-09-12T00:35:01;100532.50;;;23.92;57.77
60417;BME280;46263;44.726;10.396;2022-09-12T00:37:27;100531.44;;;23.66;58.36
60417;BME280;46263;44.726;10.396;2022-09-12T00:39:52;100545.44;;;23.62;58.19
60417;BME280;46263;44.726;10.396;2022-09-12T00:42:18;100529.03;;;23.63;58.17
60417;BME280;46263;44.726;10.396;2022-09-12T00:44:47;100535.84;;;23.58;57.83
60417;BME280;46263;44.726;10.396;2022-09-12T00:47:20;100541.09;;;23.61;58.22
60417;BME280;46263;44.726;10.396;2022-09-12T00:52:23;100533.78;;;23.79;57.71
60417;BME280;46263;44.726;10.396;2022-09-12T00:54:56;100533.69;;;23.68;57.67
60417;BME280;46263;44.726;10.396;2022-09-12T00:57:28;100542.59;;;23.62;57.87
60417;BME280;46263;44.726;10.396;2022-09-12T01:00:21;100528.31;;;23.62;58.03
60417;BME280;46263;44.726;10.396;2022-09-12T01:03:15;100532.34;;;23.69;57.79
60417;BME280;46263;44.726;10.396;2022-09-12T01:05:49;100526.47;;;23.67;57.84
60417;BME280;46263;44.726;10.396;2022-09-12T01:08:16;100519.84;;;23.74;57.62
60417;BME280;46263;44.726;10.396;2022-09-12T01:10:42;100514.59;;;23.70;57.60
60417;BME280;46263;44.726;10.396;2022-09-12T01:13:09;100521.66;;;23.69;57.37
60417;BME280;46263;44.726;10.396;2022-09-12T01:15:37;100520.03;;;23.66;57.39
60417;BME280;46263;44.726;10.396;2022-09-12T01:18:15;100513.56;;;23.66;57.65
60417;BME280;46263;44.726;10.396;2022-09-12T01:21:04;100521.66;;;23.69;57.40
60417;BME280;46263;44.726;10.396;2022-09-12T01:24:15;100512.59;;;23.52;58.07
60417;BME280;46263;44.726;10.396;2022-09-12T01:38:24;100519.66;;;23.81;57.16
60417;BME280;46263;44.726;10.396;2022-09-12T01:43:20;100511.63;;;23.89;57.26
60417;BME280;46263;44.726;10.396;2022-09-12T01:51:35;100507.53;;;23.92;57.40
60417;BME280;46263;44.726;10.396;2022-09-12T01:54:16;100513.31;;;23.83;57.71
60417;BME280;46263;44.726;10.396;2022-09-12T01:56:46;100510.19;;;23.79;57.70
60417;BME280;46263;44.726;10.396;2022-09-12T01:59:22;100506.72;;;23.80;57.90
60417;BME280;46263;44.726;10.396;2022-09-12T02:01:57;100503.75;;;23.78;57.77
60417;BME280;46263;44.726;10.396;2022-09-12T02:04:29;100505.97;;;23.80;57.97
60417;BME280;46263;44.726;10.396;2022-09-12T02:07:02;100501.41;;;23.86;57.91
60417;BME280;46263;44.726;10.396;2022-09-12T02:09:33;100500.22;;;23.89;57.76
60417;BME280;46263;44.726;10.396;2022-09-12T02:12:02;100504.56;;;23.90;57.36
60417;BME280;46263;44.726;10.396;2022-09-12T02:14:39;100504.56;;;23.90;57.53
60417;BME280;46263;44.726;10.396;2022-09-12T02:17:12;100515.69;;;23.86;57.13
60417;BME280;46263;44.726;10.396;2022-09-12T02:19:47;100514.44;;;23.68;57.43
60417;BME280;46263;44.726;10.396;2022-09-12T02:22:18;100497.47;;;23.70;57.44
60417;BME280;46263;44.726;10.396;2022-09-12T02:24:49;100500.25;;;23.80;57.58
60417;BME280;46263;44.726;10.396;2022-09-12T02:27:22;100491.97;;;23.84;57.62
60417;BME280;46263;44.726;10.396;2022-09-12T02:29:48;100492.47;;;23.80;57.90
60417;BME280;46263;44.726;10.396;2022-09-12T02:35:24;100492.13;;;23.86;57.97
60417;BME280;46263;44.726;10.396;2022-09-12T02:40:45;100501.50;;;23.77;57.96
60417;BME280;46263;44.726;10.396;2022-09-12T02:43:11;100496.22;;;23.52;58.87
60417;BME280;46263;44.726;10.396;2022-09-12T02:45:36;100503.03;;;23.47;59.10
60417;BME280;46263;44.726;10.396;2022-09-12T02:48:04;100491.50;;;23.66;58.45
60417;BME280;46263;44.726;10.396;2022-09-12T02:50:32;100493.66;;;23.77;58.36
60417;BME280;46263;44.726;10.396;2022-09-12T02:52:59;100499.03;;;23.83;58.00
60417;BME280;46263;44.726;10.396;2022-09-12T02:55:30;100499.03;;;23.83;57.99
60417;BME280;46263;44.726;10.396;2022-09-12T02:57:56;100497.66;;;23.63;58.19
60417;BME280;46263;44.726;10.396;2022-09-12T03:00:22;100500.25;;;23.29;58.76
60417;BME280;46263;44.726;10.396;2022-09-12T03:03:08;100496.94;;;23.32;59.04
60417;BME280;46263;44.726;10.396;2022-09-12T03:05:50;100487.19;;;23.56;58.59
60417;BME280;46263;44.726;10.396;2022-09-12T03:11:44;100498.41;;;23.63;58.42
60417;BME280;46263;44.726;10.396;2022-09-12T03:16:56;100491.28;;;23.74;57.92
60417;BME280;46263;44.726;10.396;2022-09-12T03:19:33;100484.81;;;23.73;57.86
60417;BME280;46263;44.726;10.396;2022-09-12T03:22:25;100482.88;;;23.76;57.99
60417;BME280;46263;44.726;10.396;2022-09-12T03:27:31;100490.25;;;23.69;57.96
60417;BME280;46263;44.726;10.396;2022-09-12T03:29:59;100486.38;;;23.65;58.42
60417;BME280;46263;44.726;10.396;2022-09-12T03:32:43;100494.59;;;23.70;58.13
60417;BME280;46263;44.726;10.396;2022-09-12T03:35:09;100490.53;;;23.73;58.16
60417;BME280;46263;44.726;10.396;2022-09-12T03:37:34;100489.03;;;23.72;58.01
60417;BME280;46263;44.726;10.396;2022-09-12T03:40:00;100480.31;;;23.70;58.06
60417;BME280;46263;44.726;10.396;2022-09-12T03:42:25;100485.41;;;23.72;58.01
60417;BME280;46263;44.726;10.396;2022-09-12T03:44:50;100480.63;;;23.74;57.70
60417;BME280;46263;44.726;10.396;2022-09-12T03:47:16;100482.88;;;23.76;57.79
60417;BME280;46263;44.726;10.396;2022-09-12T03:49:41;100480.91;;;23.78;57.81
60417;BME280;46263;44.726;10.396;2022-09-12T03:52:07;100487.97;;;23.77;57.82
60417;BME280;46263;44.726;10.396;2022-09-12T03:54:32;100485.09;;;23.77;58.19
60417;BME280;46263;44.726;10.396;2022-09-12T03:56:58;100485.59;;;23.74;57.82
60417;BME280;46263;44.726;10.396;2022-09-12T03:59:23;100487.00;;;23.63;58.20
60417;BME280;46263;44.726;10.396;2022-09-12T04:01:48;100491.94;;;23.63;58.31
60417;BME280;46263;44.726;10.396;2022-09-12T04:04:14;100492.84;;;23.65;58.20
60417;BME280;46263;44.726;10.396;2022-09-12T04:06:39;100490.72;;;23.66;58.04
60417;BME280;46263;44.726;10.396;2022-09-12T04:09:06;100493.31;;;23.62;58.23
60417;BME280;46263;44.726;10.396;2022-09-12T04:11:31;100494.94;;;23.65;58.06
60417;BME280;46263;44.726;10.396;2022-09-12T04:13:57;100493.09;;;23.69;58.06
60417;BME280;46263;44.726;10.396;2022-09-12T04:16:22;100489.38;;;23.67;57.92
60417;BME280;46263;44.726;10.396;2022-09-12T04:18:48;100485.63;;;23.64;58.22
60417;BME280;46263;44.726;10.396;2022-09-12T04:21:16;100493.56;;;23.66;58.14
60417;BME280;46263;44.726;10.396;2022-09-12T04:23:42;100491.00;;;23.70;58.05
60417;BME280;46263;44.726;10.396;2022-09-12T04:26:08;100489.03;;;23.72;58.10
60417;BME280;46263;44.726;10.396;2022-09-12T04:28:36;100489.84;;;23.63;57.02
60417;BME280;46263;44.726;10.396;2022-09-12T04:31:14;100488.63;;;23.66;57.12
60417;BME280;46263;44.726;10.396;2022-09-12T04:33:42;100498.06;;;23.69;57.66
60417;BME280;46263;44.726;10.396;2022-09-12T04:36:10;100494.59;;;23.70;57.72
60417;BME280;46263;44.726;10.396;2022-09-12T04:38:38;100498.66;;;23.67;57.76
60417;BME280;46263;44.726;10.396;2022-09-12T04:41:31;100492.97;;;23.67;57.72
60417;BME280;46263;44.726;10.396;2022-09-12T04:43:59;100491.59;;;23.68;57.60
60417;BME280;46263;44.726;10.396;2022-09-12T04:46:36;100495.16;;;23.57;57.75
60417;BME280;46263;44.726;10.396;2022-09-12T04:49:03;100494.72;;;23.51;57.71
60417;BME280;46263;44.726;10.396;2022-09-12T04:51:31;100495.81;;;23.46;58.00
60417;BME280;46263;44.726;10.396;2022-09-12T04:54:06;100501.94;;;23.52;58.01
60417;BME280;46263;44.726;10.396;2022-09-12T04:56:39;100504.53;;;23.48;57.84
60417;BME280;46263;44.726;10.396;2022-09-12T04:59:05;100504.63;;;23.50;57.59
60417;BME280;46263;44.726;10.396;2022-09-12T05:01:31;100507.44;;;23.09;58.50
60417;BME280;46263;44.726;10.396;2022-09-12T05:03:57;100515.31;;;22.80;59.72
60417;BME280;46263;44.726;10.396;2022-09-12T05:06:26;100516.00;;;23.09;58.95
60417;BME280;46263;44.726;10.396;2022-09-12T05:08:53;100511.44;;;23.15;58.87
60417;BME280;46263;44.726;10.396;2022-09-12T05:11:22;100519.19;;;22.84;58.83
60417;BME280;46263;44.726;10.396;2022-09-12T05:13:49;100519.16;;;22.45;60.16
60417;BME280;46263;44.726;10.396;2022-09-12T05:16:16;100525.00;;;22.47;59.46
60417;BME280;46263;44.726;10.396;2022-09-12T05:18:42;100524.28;;;22.86;58.93
60417;BME280;46263;44.726;10.396;2022-09-12T05:21:12;100531.69;;;22.79;59.05
60417;BME280;46263;44.726;10.396;2022-09-12T05:23:38;100533.63;;;22.77;59.19
60417;BME280;46263;44.726;10.396;2022-09-12T05:26:05;100536.88;;;23.02;58.62
60417;BME280;46263;44.726;10.396;2022-09-12T05:28:34;100543.59;;;23.06;58.17
60417;BME280;46263;44.726;10.396;2022-09-12T05:33:33;100540.25;;;23.19;57.40
60417;BME280;46263;44.726;10.396;2022-09-12T05:36:00;100549.53;;;23.29;57.65
60417;BME280;46263;44.726;10.396;2022-09-12T05:38:25;100551.31;;;22.85;58.94
60417;BME280;46263;44.726;10.396;2022-09-12T05:41:02;100553.09;;;22.90;59.01
60417;BME280;46263;44.726;10.396;2022-09-12T05:43:28;100551.16;;;22.83;58.85
60417;BME280;46263;44.726;10.396;2022-09-12T05:46:20;100556.25;;;22.84;59.05
60417;BME280;46263;44.726;10.396;2022-09-12T05:48:46;100555.97;;;22.71;59.70
60417;BME280;46263;44.726;10.396;2022-09-12T05:51:19;100554.50;;;22.60;59.87
60417;BME280;46263;44.726;10.396;2022-09-12T05:53:47;100568.75;;;22.70;59.96
60417;BME280;46263;44.726;10.396;2022-09-12T05:56:16;100575.66;;;22.67;59.86
60417;BME280;46263;44.726;10.396;2022-09-12T05:58:45;100568.16;;;22.71;59.80
60417;BME280;46263;44.726;10.396;2022-09-12T06:01:13;100568.47;;;22.47;60.54
60417;BME280;46263;44.726;10.396;2022-09-12T06:03:42;100571.78;;;22.53;60.64
60417;BME280;46263;44.726;10.396;2022-09-12T06:06:09;100575.53;;;22.55;60.25
60417;BME280;46263;44.726;10.396;2022-09-12T06:08:39;100568.59;;;22.77;60.05
60417;BME280;46263;44.726;10.396;2022-09-12T06:11:06;100576.22;;;22.94;59.22
60417;BME280;46263;44.726;10.396;2022-09-12T06:13:33;100576.53;;;22.88;59.58
60417;BME280;46263;44.726;10.396;2022-09-12T06:16:10;100569.00;;;22.83;59.38
60417;BME280;46263;44.726;10.396;2022-09-12T06:18:37;100573.56;;;22.58;60.53
60417;BME280;46263;44.726;10.396;2022-09-12T06:21:21;100580.16;;;22.60;60.41
60417;BME280;46263;44.726;10.396;2022-09-12T06:23:47;100575.66;;;22.67;60.28
60417;BME280;46263;44.726;10.396;2022-09-12T06:26:14;100572.47;;;22.82;59.99
60417;BME280;46263;44.726;10.396;2022-09-12T06:28:42;100582.81;;;22.87;59.89
60417;BME280;46263;44.726;10.396;2022-09-12T06:31:14;100577.56;;;22.83;60.11
60417;BME280;46263;44.726;10.396;2022-09-12T06:33:43;100572.31;;;22.80;60.38
60417;BME280;46263;44.726;10.396;2022-09-12T06:36:14;100575.28;;;22.91;59.94
60417;BME280;46263;44.726;10.396;2022-09-12T06:38:41;100573.22;;;22.92;60.41
60417;BME280;46263;44.726;10.396;2022-09-12T06:41:09;100579.78;;;23.04;59.53
60417;BME280;46263;44.726;10.396;2022-09-12T06:43:35;100586.53;;;23.08;59.17
60417;BME280;46263;44.726;10.396;2022-09-12T06:46:01;100583.97;;;23.03;59.23
60417;BME280;46263;44.726;10.396;2022-09-12T06:48:27;100584.00;;;22.93;59.49
60417;BME280;46263;44.726;10.396;2022-09-12T06:51:04;100581.78;;;22.73;59.68
60417;BME280;46263;44.726;10.396;2022-09-12T06:53:32;100578.22;;;22.53;60.22
60417;BME280;46263;44.726;10.396;2022-09-12T06:56:00;100572.16;;;22.78;59.58
60417;BME280;46263;44.726;10.396;2022-09-12T06:58:26;100581.00;;;22.91;58.98
60417;BME280;46263;44.726;10.396;2022-09-12T07:00:56;100585.72;;;22.68;59.14
60417;BME280;46263;44.726;10.396;2022-09-12T07:03:25;100578.91;;;22.82;58.69
60417;BME280;46263;44.726;10.396;2022-09-12T07:05:50;100579.50;;;23.00;58.68
60417;BME280;46263;44.726;10.396;2022-09-12T07:08:16;100572.88;;;23.07;58.14
60417;BME280;46263;44.726;10.396;2022-09-12T07:10:41;100572.28;;;22.99;58.62
60417;BME280;46263;44.726;10.396;2022-09-12T07:13:07;100575.59;;;22.95;58.62
60417;BME280;46263;44.726;10.396;2022-09-12T07:15:34;100578.44;;;22.95;58.72
60417;BME280;46263;44.726;10.396;2022-09-12T07:18:00;100578.25;;;23.03;58.63
60417;BME280;46263;44.726;10.396;2022-09-12T07:20:25;100575.88;;;23.09;58.74
60417;BME280;46263;44.726;10.396;2022-09-12T07:22:51;100570.28;;;23.20;58.38
60417;BME280;46263;44.726;10.396;2022-09-12T07:25:16;100580.38;;;23.12;58.35
60417;BME280;46263;44.726;10.396;2022-09-12T07:27:41;100571.13;;;22.83;59.07
60417;BME280;46263;44.726;10.396;2022-09-12T07:30:07;100570.50;;;23.03;58.66
60417;BME280;46263;44.726;10.396;2022-09-12T07:32:33;100578.22;;;23.22;58.48
60417;BME280;46263;44.726;10.396;2022-09-12T07:34:58;100575.81;;;23.28;58.59
60417;BME280;46263;44.726;10.396;2022-09-12T07:37:24;100569.34;;;23.27;58.05
60417;BME280;46263;44.726;10.396;2022-09-12T07:39:49;100568.88;;;23.31;58.20
60417;BME280;46263;44.726;10.396;2022-09-12T07:42:15;100576.16;;;23.22;58.24
60417;BME280;46263;44.726;10.396;2022-09-12T07:44:41;100575.44;;;22.93;59.28
60417;BME280;46263;44.726;10.396;2022-09-12T07:47:06;100569.59;;;23.01;59.23
60417;BME280;46263;44.726;10.396;2022-09-12T07:49:32;100578.31;;;22.93;59.48
60417;BME280;46263;44.726;10.396;2022-09-12T07:51:57;100573.47;;;23.15;59.12
60417;BME280;46263;44.726;10.396;2022-09-12T07:54:23;100581.88;;;23.13;59.20
60417;BME280;46263;44.726;10.396;2022-09-12T07:56:48;100574.59;;;23.31;59.07
60417;BME280;46263;44.726;10.396;2022-09-12T07:59:14;100585.38;;;23.41;58.85
60417;BME280;46263;44.726;10.396;2022-09-12T08:01:39;100584.94;;;23.35;58.78
60417;BME280;46263;44.726;10.396;2022-09-12T08:04:05;100579.56;;;23.30;58.98
60417;BME280;46263;44.726;10.396;2022-09-12T08:06:32;100583.72;;;23.38;59.04
60417;BME280;46263;44.726;10.396;2022-09-12T08:09:00;100581.13;;;23.42;59.11
60417;BME280;46263;44.726;10.396;2022-09-12T08:11:27;100578.84;;;23.50;58.81
60417;BME280;46263;44.726;10.396;2022-09-12T08:13:54;100583.50;;;23.55;58.73
60417;BME280;46263;44.726;10.396;2022-09-12T08:16:23;100590.94;;;23.39;59.26
60417;BME280;46263;44.726;10.396;2022-09-12T08:18:49;100590.78;;;23.37;59.46
60417;BME280;46263;44.726;10.396;2022-09-12T08:21:17;100576.50;;;23.37;59.49
60417;BME280;46263;44.726;10.396;2022-09-12T08:23:43;100578.75;;;23.39;59.55
60417;BME280;46263;44.726;10.396;2022-09-12T08:26:09;100580.56;;;23.34;59.74
60417;BME280;46263;44.726;10.396;2022-09-12T08:28:36;100583.56;;;23.36;59.67
60417;BME280;46263;44.726;10.396;2022-09-12T08:31:03;100586.25;;;23.44;59.52
60417;BME280;46263;44.726;10.396;2022-09-12T08:33:30;100584.00;;;23.42;59.50
60417;BME280;46263;44.726;10.396;2022-09-12T08:36:05;100594.63;;;23.51;59.21
60417;BME280;46263;44.726;10.396;2022-09-12T08:38:32;100582.94;;;23.47;59.28
60417;BME280;46263;44.726;10.396;2022-09-12T08:54:57;100591.44;;;23.57;59.34
60417;BME280;46263;44.726;10.396;2022-09-12T08:57:24;100583.97;;;23.52;59.42
60417;BME280;46263;44.726;10.396;2022-09-12T08:59:50;100587.22;;;23.58;59.62
60417;BME280;46263;44.726;10.396;2022-09-12T09:05:18;100589.00;;;23.63;59.43
60417;BME280;46263;44.726;10.396;2022-09-12T09:19:04;100591.81;;;23.72;59.44
60417;BME280;46263;44.726;10.396;2022-09-12T09:21:39;100589.25;;;23.76;59.09
60417;BME280;46263;44.726;10.396;2022-09-12T09:24:14;100594.22;;;23.76;58.63
60417;BME280;46263;44.726;10.396;2022-09-12T09:27:00;100576.34;;;23.75;58.96
60417;BME280;46263;44.726;10.396;2022-09-12T09:29:35;100577.25;;;23.78;59.34
60417;BME280;46263;44.726;10.396;2022-09-12T09:32:13;100583.69;;;23.78;59.15
60417;BME280;46263;44.726;10.396;2022-09-12T09:34:41;100581.84;;;23.83;58.88
60417;BME280;46263;44.726;10.396;2022-09-12T09:37:34;100574.78;;;23.84;59.19
60417;BME280;46263;44.726;10.396;2022-09-12T09:42:59;100574.78;;;23.84;59.41
60417;BME280;46263;44.726;10.396;2022-09-12T09:45:27;100575.53;;;23.84;59.61
60417;BME280;46263;44.726;10.396;2022-09-12T09:48:17;100570.56;;;23.85;59.87
60417;BME280;46263;44.726;10.396;2022-09-12T09:50:45;100567.88;;;23.87;59.79
60417;BME280;46263;44.726;10.396;2022-09-12T09:55:44;100560.66;;;23.86;59.83
60417;BME280;46263;44.726;10.396;2022-09-12T09:58:10;100558.69;;;23.88;59.70
60417;BME280;46263;44.726;10.396;2022-09-12T10:00:36;100559.69;;;23.93;59.81
60417;BME280;46263;44.726;10.396;2022-09-12T10:05:53;100566.44;;;23.97;59.61
60417;BME280;46263;44.726;10.396;2022-09-12T10:08:24;100563.59;;;23.97;59.71
60417;BME280;46263;44.726;10.396;2022-09-12T10:10:56;100548.53;;;23.97;59.79
60417;BME280;46263;44.726;10.396;2022-09-12T10:16:22;100554.59;;;23.91;60.13
60417;BME280;46263;44.726;10.396;2022-09-12T10:18:49;100553.38;;;23.94;60.09
60417;BME280;46263;44.726;10.396;2022-09-12T10:24:09;100545.56;;;23.95;59.87
60417;BME280;46263;44.726;10.396;2022-09-12T10:26:40;100551.72;;;23.91;60.06
60417;BME280;46263;44.726;10.396;2022-09-12T10:29:14;100540.94;;;23.90;60.57
60417;BME280;46263;44.726;10.396;2022-09-12T10:31:48;100541.06;;;23.92;60.26
60417;BME280;46263;44.726;10.396;2022-09-12T10:34:21;100538.34;;;23.94;59.88
60417;BME280;46263;44.726;10.396;2022-09-12T10:36:51;100535.50;;;23.94;60.06
60417;BME280;46263;44.726;10.396;2022-09-12T10:39:19;100531.28;;;23.95;59.91
60417;BME280;46263;44.726;10.396;2022-09-12T10:41:45;100532.91;;;23.98;59.80
60417;BME280;46263;44.726;10.396;2022-09-12T10:44:16;100525.19;;;24.00;59.89
60417;BME280;46263;44.726;10.396;2022-09-12T10:46:42;100531.41;;;23.97;60.38
60417;BME280;46263;44.726;10.396;2022-09-12T10:49:28;100523.44;;;23.95;59.96
60417;BME280;46263;44.726;10.396;2022-09-12T10:51:55;100520.25;;;24.01;59.84
60417;BME280;46263;44.726;10.396;2022-09-12T10:54:25;100521.63;;;24.00;59.69
60417;BME280;46263;44.726;10.396;2022-09-12T11:05:52;100515.56;;;24.05;59.94
60417;BME280;46263;44.726;10.396;2022-09-12T11:14:32;100507.88;;;24.08;59.73
60417;BME280;46263;44.726;10.396;2022-09-12T11:22:33;100504.31;;;24.18;59.25
60417;BME280;46263;44.726;10.396;2022-09-12T11:30:19;100496.47;;;24.19;59.27
60417;BME280;46263;44.726;10.396;2022-09-12T11:35:29;100497.69;;;24.16;59.59
60417;BME280;46263;44.726;10.396;2022-09-12T11:40:51;100490.41;;;24.24;59.43
60417;BME280;46263;44.726;10.396;2022-09-12T11:45:49;100491.63;;;24.21;59.17
60417;BME280;46263;44.726;10.396;2022-09-12T11:48:51;100487.91;;;24.19;59.46
60417;BME280;46263;44.726;10.396;2022-09-12T11:51:23;100487.19;;;24.18;59.35
60417;BME280;46263;44.726;10.396;2022-09-12T11:56:46;100474.97;;;24.18;59.55
60417;BME280;46263;44.726;10.396;2022-09-12T12:02:11;100469.25;;;24.18;59.58
60417;BME280;46263;44.726;10.396;2022-09-12T12:04:49;100469.41;;;24.20;59.74
60417;BME280;46263;44.726;10.396;2022-09-12T12:07:19;100465.06;;;24.19;59.73
60417;BME280;46263;44.726;10.396;2022-09-12T12:09:50;100465.06;;;24.19;59.70
60417;BME280;46263;44.726;10.396;2022-09-12T12:12:23;100470.13;;;24.20;59.59
60417;BME280;46263;44.726;10.396;2022-09-12T12:14:51;100464.44;;;24.20;59.76
60417;BME280;46263;44.726;10.396;2022-09-12T12:17:21;100460.84;;;24.20;59.90
60417;BME280;46263;44.726;10.396;2022-09-12T12:19:57;100455.25;;;24.22;59.83
60417;BME280;46263;44.726;10.396;2022-09-12T12:22:24;100455.25;;;24.22;59.80
60417;BME280;46263;44.726;10.396;2022-09-12T12:27:47;100450.91;;;24.21;59.84
60417;BME280;46263;44.726;10.396;2022-09-12T12:35:42;100457.97;;;24.20;59.40
60417;BME280;46263;44.726;10.396;2022-09-12T12:38:37;100446.56;;;24.20;59.54
60417;BME280;46263;44.726;10.396;2022-09-12T12:43:46;100444.31;;;24.18;59.51
60417;BME280;46263;44.726;10.396;2022-09-12T12:46:27;100442.19;;;24.19;59.34
60417;BME280;46263;44.726;10.396;2022-09-12T12:48:55;100439.34;;;24.19;59.44
60417;BME280;46263;44.726;10.396;2022-09-12T12:57:35;100425.19;;;24.21;59.45
60417;BME280;46263;44.726;10.396;2022-09-12T13:00:06;100425.44;;;24.25;59.49
60417;BME280;46263;44.726;10.396;2022-09-12T13:05:47;100422.31;;;24.21;59.64
60417;BME280;46263;44.726;10.396;2022-09-12T13:13:26;100422.47;;;24.23;59.61
60417;BME280;46263;44.726;10.396;2022-09-12T13:15:53;100412.50;;;24.24;59.17
60417;BME280;46263;44.726;10.396;2022-09-12T13:18:23;100417.47;;;24.23;59.35
60417;BME280;46263;44.726;10.396;2022-09-12T13:21:09;100422.56;;;24.25;59.31
60417;BME280;46263;44.726;10.396;2022-09-12T13:23:36;100415.50;;;24.26;59.33
60417;BME280;46263;44.726;10.396;2022-09-12T13:26:02;100409.78;;;24.26;59.49
60417;BME280;46263;44.726;10.396;2022-09-12T13:28:29;100407.06;;;24.28;59.12
60417;BME280;46263;44.726;10.396;2022-09-12T13:31:02;100407.06;;;24.28;59.34
60417;BME280;46263;44.726;10.396;2022-09-12T13:33:44;100411.56;;;24.31;58.66
60417;BME280;46263;44.726;10.396;2022-09-12T13:36:32;100401.59;;;24.32;58.81
60417;BME280;46263;44.726;10.396;2022-09-12T13:39:21;100400.72;;;24.29;57.77
60417;BME280;46263;44.726;10.396;2022-09-12T13:42:01;100393.00;;;24.32;58.06
60417;BME280;46263;44.726;10.396;2022-09-12T13:44:45;100388.19;;;24.34;58.34
60417;BME280;46263;44.726;10.396;2022-09-12T13:47:15;100386.06;;;24.35;58.63
60417;BME280;46263;44.726;10.396;2022-09-12T13:49:44;100379.63;;;24.34;58.84
60417;BME280;46263;44.726;10.396;2022-09-12T13:52:20;100376.13;;;24.36;58.70
60417;BME280;46263;44.726;10.396;2022-09-12T13:54:49;100378.22;;;24.35;58.69
60417;BME280;46263;44.726;10.396;2022-09-12T13:57:34;100374.00;;;24.36;58.43
60417;BME280;46263;44.726;10.396;2022-09-12T14:00:22;100369.06;;;24.37;58.40
60417;BME280;46263;44.726;10.396;2022-09-12T14:02:49;100374.78;;;24.37;58.22
60417;BME280;46263;44.726;10.396;2022-09-12T14:05:36;100362.56;;;24.36;58.63
60417;BME280;46263;44.726;10.396;2022-09-12T14:08:05;100369.06;;;24.37;58.49
60417;BME280;46263;44.726;10.396;2022-09-12T14:10:39;100359.84;;;24.38;58.41
60417;BME280;46263;44.726;10.396;2022-09-12T14:13:11;100367.69;;;24.38;58.43
60417;BME280;46263;44.726;10.396;2022-09-12T14:15:43;100359.84;;;24.38;58.49
60417;BME280;46263;44.726;10.396;2022-09-12T14:18:21;100358.50;;;24.39;58.60
60417;BME280;46263;44.726;10.396;2022-09-12T14:20:47;100359.22;;;24.40;58.54
60417;BME280;46263;44.726;10.396;2022-09-12T14:23:23;100353.63;;;24.42;58.75
60417;BME280;46263;44.726;10.396;2022-09-12T14:25:52;100350.66;;;24.40;58.57
60417;BME280;46263;44.726;10.396;2022-09-12T14:28:19;100349.28;;;24.41;58.37
60417;BME280;46263;44.726;10.396;2022-09-12T14:30:58;100340.72;;;24.41;58.44
60417;BME280;46263;44.726;10.396;2022-09-12T14:33:25;100343.72;;;24.43;58.33
60417;BME280;46263;44.726;10.396;2022-09-12T14:36:16;100341.59;;;24.43;58.44
60417;BME280;46263;44.726;10.396;2022-09-12T14:38:45;100333.78;;;24.44;58.54
60417;BME280;46263;44.726;10.396;2022-09-12T14:41:13;100335.88;;;24.43;58.61
60417;BME280;46263;44.726;10.396;2022-09-12T14:43:50;100330.19;;;24.43;58.44
60417;BME280;46263;44.726;10.396;2022-09-12T14:46:22;100326.72;;;24.45;58.59
60417;BME280;46263;44.726;10.396;2022-09-12T14:49:16;100331.06;;;24.46;58.51
60417;BME280;46263;44.726;10.396;2022-09-12T14:51:47;100323.84;;;24.45;58.35
60417;BME280;46263;44.726;10.396;2022-09-12T14:56:59;100316.16;;;24.47;58.65
60417;BME280;46263;44.726;10.396;2022-09-12T14:59:26;100321.88;;;24.47;58.58
60417;BME280;46263;44.726;10.396;2022-09-12T15:10:22;100328.44;;;24.50;58.91
60417;BME280;46263;44.726;10.396;2022-09-12T15:13:11;100320.00;;;24.52;58.57
60417;BME280;46263;44.726;10.396;2022-09-12T15:15:43;100325.72;;;24.52;58.69
60417;BME280;46263;44.726;10.396;2022-09-12T15:18:09;100321.38;;;24.51;58.84
60417;BME280;46263;44.726;10.396;2022-09-12T15:20:38;100320.63;;;24.50;58.70
60417;BME280;46263;44.726;10.396;2022-09-12T15:23:09;100323.59;;;24.52;58.65
60417;BME280;46263;44.726;10.396;2022-09-12T15:25:37;100318.63;;;24.53;58.73
60417;BME280;46263;44.726;10.396;2022-09-12T15:28:14;100321.63;;;24.55;58.77
60417;BME280;46263;44.726;10.396;2022-09-12T15:30:40;100310.19;;;24.55;58.76
60417;BME280;46263;44.726;10.396;2022-09-12T15:33:07;100314.50;;;24.56;58.82
60417;BME280;46263;44.726;10.396;2022-09-12T15:35:34;100304.56;;;24.57;58.78